Dardenne Prairie, Missouri
Current Conditions -  °F | °C
As of 11:54 AM on Friday 31 Oct 2014 (Local Time) from KSUS Reporting Station
Scattered Clouds Scattered Clouds  
Wind Chill: 35°   Ceiling: Unl
Heat Index: 43°   Visibility: 10mi
Dew Point: 24°   Wind: 17mph
Humidity: 47%   Direction: 330°NNW
Pressure: 30.32"   Gusts: 26mph
Location:  38.757°N, 90.7247°W
Report Text: KSUS 311654Z 33015G23KT 10SM SCT050 06/M04 A3032 RMK AO2 PK WND 36026/1640 SLP269 T00611044
Loading
Personal Weather Stations






























Interactive Weather Map New forecast layout! Learn more

10-Day Weather Forecast

Advertisements
Track Severe Weather on mobile